Time;durP1;ratioP1;P1;durP2;ratioP2;P2;SDS_P1;SDS_P2;PMS_P1;PMS_P2;Temp;Humidity;BMP_temperature;BMP_pressure;BME280_temperature;BME280_humidity;BME280_pressure;Samples;Min_cycle;Max_cycle;Signal;HPM_P1;HPM_P2
2024/01/07 00:01:10;;;;;;;15.65;8.43;;;1.70;99.90;;;;;;5056834;28;20416;-82
2024/01/07 00:03:35;;;;;;;17.25;9.43;;;1.40;99.90;;;;;;5057197;28;20045;-81
2024/01/07 00:06:01;;;;;;;15.45;8.40;;;1.40;99.90;;;;;;5073051;28;20405;-82
2024/01/07 00:08:30;;;;;;;15.77;8.88;;;1.40;99.90;;;;;;5076505;28;20036;-81
2024/01/07 00:10:55;;;;;;;18.27;9.40;;;1.40;99.90;;;;;;5075084;28;20385;-82
2024/01/07 00:13:21;;;;;;;15.20;9.00;;;1.40;99.90;;;;;;5073723;28;20037;-82
2024/01/07 00:15:47;;;;;;;16.25;9.15;;;1.40;99.90;;;;;;5061869;28;20491;-81
2024/01/07 00:18:12;;;;;;;17.42;9.95;;;1.40;99.90;;;;;;5075833;28;20139;-82
2024/01/07 00:20:38;;;;;;;16.45;9.55;;;1.40;99.90;;;;;;5075104;28;20052;-81
2024/01/07 00:23:04;;;;;;;17.15;9.38;;;1.40;99.90;;;;;;5077491;28;20071;-82
2024/01/07 00:25:29;;;;;;;18.65;10.23;;;1.40;99.90;;;;;;5064421;28;20037;-81
2024/01/07 00:27:55;;;;;;;16.48;9.40;;;1.40;99.90;;;;;;5055632;28;20158;-81
2024/01/07 00:30:21;;;;;;;17.33;9.25;;;1.40;99.90;;;;;;5055562;28;20137;-81
2024/01/07 00:32:47;;;;;;;16.17;9.02;;;1.40;99.90;;;;;;5055356;28;20130;-81
2024/01/07 00:35:12;;;;;;;16.35;8.50;;;1.40;99.90;;;;;;5054166;28;20049;-81
2024/01/07 00:37:38;;;;;;;14.60;7.85;;;1.50;99.90;;;;;;5055812;28;20135;-81
2024/01/07 00:40:05;;;;;;;14.63;8.50;;;1.40;99.90;;;;;;5073381;28;20040;-81
2024/01/07 00:42:31;;;;;;;15.63;8.90;;;1.50;99.90;;;;;;5075764;28;20493;-81
2024/01/07 00:44:56;;;;;;;14.57;8.15;;;1.50;99.90;;;;;;5069778;28;20135;-81
2024/01/07 00:47:22;;;;;;;14.90;7.95;;;1.50;99.90;;;;;;5055164;28;20041;-81
2024/01/07 00:49:48;;;;;;;11.55;7.25;;;1.40;99.90;;;;;;5054330;28;20067;-81
2024/01/07 00:52:13;;;;;;;15.18;8.18;;;1.40;99.90;;;;;;5053785;28;20091;-81
2024/01/07 00:54:39;;;;;;;13.52;7.88;;;1.50;99.90;;;;;;5056481;28;20049;-81
2024/01/07 00:57:05;;;;;;;11.93;7.13;;;1.40;99.90;;;;;;5075308;28;20037;-81
2024/01/07 00:59:30;;;;;;;13.30;7.28;;;1.40;99.90;;;;;;5074496;28;20045;-81
2024/01/07 01:01:56;;;;;;;13.10;7.50;;;1.30;99.90;;;;;;5075066;28;20037;-81
2024/01/07 01:04:22;;;;;;;12.48;7.60;;;2.20;99.90;;;;;;5056996;28;20040;-82
2024/01/07 01:06:48;;;;;;;13.98;8.05;;;1.30;99.90;;;;;;5055474;28;20048;-81
2024/01/07 01:09:13;;;;;;;13.90;8.25;;;1.30;99.90;;;;;;5054830;28;20045;-81
2024/01/07 01:11:39;;;;;;;15.35;8.63;;;1.30;99.90;;;;;;5054834;28;20091;-81
2024/01/07 01:14:05;;;;;;;12.65;7.15;;;1.30;99.90;;;;;;5065096;28;20049;-81
2024/01/07 01:16:30;;;;;;;13.88;7.57;;;1.30;99.90;;;;;;5072450;28;20094;-81
2024/01/07 01:18:56;;;;;;;15.88;7.75;;;1.20;99.90;;;;;;5067732;28;20059;-81
2024/01/07 01:21:22;;;;;;;15.02;8.50;;;1.30;99.90;;;;;;5074078;28;20377;-80
2024/01/07 01:23:48;;;;;;;15.80;7.68;;;1.30;99.90;;;;;;5073493;28;20048;-81
2024/01/07 01:26:15;;;;;;;15.82;8.30;;;1.30;99.90;;;;;;5074395;28;20076;-81
2024/01/07 01:28:40;;;;;;;14.88;7.78;;;1.30;99.90;;;;;;5056506;28;20040;-81
2024/01/07 01:31:06;;;;;;;13.93;6.85;;;2.00;99.90;;;;;;5054444;28;20051;-81
2024/01/07 01:33:32;;;;;;;14.57;8.80;;;1.20;99.90;;;;;;5054393;28;20525;-81
2024/01/07 01:35:57;;;;;;;12.77;7.57;;;1.20;99.90;;;;;;5059933;28;20559;-81
2024/01/07 01:38:23;;;;;;;14.35;7.75;;;1.20;99.90;;;;;;5061539;28;20044;-81
2024/01/07 01:40:53;;;;;;;12.45;7.25;;;1.20;99.90;;;;;;5054222;28;20086;-82
2024/01/07 01:43:26;;;;;;;15.07;7.85;;;1.20;99.90;;;;;;5054295;28;20092;-81
2024/01/07 01:45:56;;;;;;;14.40;8.27;;;1.20;99.90;;;;;;5057965;28;20040;-82
2024/01/07 01:48:23;;;;;;;14.05;7.55;;;2.10;99.90;;;;;;5068224;28;20048;-81
2024/01/07 01:50:50;;;;;;;12.70;7.28;;;1.80;99.90;;;;;;5074196;28;20048;-81
2024/01/07 01:53:16;;;;;;;12.90;7.25;;;1.20;99.90;;;;;;5073902;28;20048;-82
2024/01/07 01:55:42;;;;;;;16.30;6.80;;;1.90;99.90;;;;;;5056172;28;20081;-81
2024/01/07 01:58:09;;;;;;;12.65;6.88;;;1.20;99.90;;;;;;5072180;28;20037;-82
2024/01/07 02:00:35;;;;;;;19.77;7.47;;;1.20;99.90;;;;;;5073710;28;20048;-82
2024/01/07 02:03:01;;;;;;;11.43;6.97;;;1.20;99.90;;;;;;5073503;28;20037;-81
2024/01/07 02:05:27;;;;;;;16.15;7.82;;;1.20;99.90;;;;;;5073838;28;20040;-82
2024/01/07 02:07:56;;;;;;;15.15;6.82;;;1.20;99.90;;;;;;5072252;28;20041;-82
2024/01/07 02:10:22;;;;;;;12.80;7.10;;;1.20;99.90;;;;;;5052372;28;20080;-81
2024/01/07 02:12:48;;;;;;;13.40;6.90;;;1.20;99.90;;;;;;5055360;28;20408;-82
2024/01/07 02:15:14;;;;;;;11.60;6.20;;;1.40;99.90;;;;;;5073600;28;20084;-81
2024/01/07 02:17:40;;;;;;;11.70;6.07;;;1.20;99.90;;;;;;5071336;28;20123;-82
2024/01/07 02:20:07;;;;;;;11.48;6.03;;;1.20;99.90;;;;;;5073145;28;20059;-82
2024/01/07 02:22:32;;;;;;;11.02;5.57;;;1.20;99.90;;;;;;5073493;28;20087;-82
2024/01/07 02:24:58;;;;;;;12.45;6.20;;;1.20;99.90;;;;;;5054225;28;20089;-82
2024/01/07 02:27:24;;;;;;;12.05;6.18;;;1.20;99.90;;;;;;5052007;28;20041;-81
2024/01/07 02:29:49;;;;;;;11.15;6.10;;;1.20;99.90;;;;;;5051392;28;20049;-81
2024/01/07 02:32:15;;;;;;;11.35;6.25;;;1.20;99.90;;;;;;5053210;28;20049;-82
2024/01/07 02:34:41;;;;;;;13.57;6.30;;;1.20;99.90;;;;;;5053346;28;20080;-81
2024/01/07 02:37:06;;;;;;;10.55;5.47;;;1.20;99.90;;;;;;5052993;28;20049;-81
2024/01/07 02:39:32;;;;;;;12.38;5.93;;;1.20;99.90;;;;;;5068584;28;20048;-82
2024/01/07 02:41:58;;;;;;;9.40;4.88;;;1.20;99.90;;;;;;5073287;28;20051;-81
2024/01/07 02:44:23;;;;;;;9.38;5.28;;;1.40;99.90;;;;;;5062899;28;20043;-81
2024/01/07 02:46:49;;;;;;;9.68;5.43;;;1.10;99.90;;;;;;5072926;28;20088;-81
2024/01/07 02:49:15;;;;;;;9.75;4.85;;;1.20;99.90;;;;;;5072574;28;20045;-82
2024/01/07 02:51:40;;;;;;;10.80;5.05;;;1.30;99.90;;;;;;5073107;28;20044;-82
2024/01/07 02:54:06;;;;;;;9.60;4.88;;;1.20;99.90;;;;;;5073269;28;20059;-81
2024/01/07 02:56:32;;;;;;;8.77;5.30;;;1.20;99.90;;;;;;5073367;28;20132;-81
2024/01/07 02:58:57;;;;;;;12.18;4.72;;;1.10;99.90;;;;;;5060883;28;20080;-82
2024/01/07 03:01:23;;;;;;;10.60;5.13;;;1.20;99.90;;;;;;5053296;28;20124;-81
2024/01/07 03:03:49;;;;;;;9.00;4.65;;;1.10;99.90;;;;;;5053117;28;20045;-82
2024/01/07 03:06:15;;;;;;;10.63;4.80;;;1.10;99.90;;;;;;5053132;28;20041;-82
2024/01/07 03:08:42;;;;;;;11.10;4.50;;;1.10;99.90;;;;;;5052601;28;20041;-81
2024/01/07 03:11:07;;;;;;;9.02;5.22;;;1.10;99.90;;;;;;5052826;28;20495;-81
2024/01/07 03:13:33;;;;;;;11.02;4.63;;;1.40;99.90;;;;;;5053043;28;20116;-81
2024/01/07 03:15:59;;;;;;;8.38;4.45;;;1.10;99.90;;;;;;5052780;28;20037;-82
2024/01/07 03:18:24;;;;;;;9.27;4.32;;;1.10;99.90;;;;;;5052173;28;20113;-81
2024/01/07 03:20:50;;;;;;;9.43;5.03;;;1.10;99.90;;;;;;5052425;28;20124;-81
2024/01/07 03:23:18;;;;;;;10.23;5.00;;;1.30;99.90;;;;;;5054870;28;20178;-82
2024/01/07 03:25:44;;;;;;;9.52;4.70;;;1.10;99.90;;;;;;5056744;28;20052;-81
2024/01/07 03:28:09;;;;;;;9.32;4.78;;;2.00;99.90;;;;;;5056227;28;20079;-82
2024/01/07 03:30:35;;;;;;;9.98;5.15;;;1.10;99.90;;;;;;5056597;28;20049;-82
2024/01/07 03:33:01;;;;;;;9.35;4.03;;;1.10;99.90;;;;;;5056393;28;20040;-82
2024/01/07 03:35:27;;;;;;;7.82;4.20;;;1.10;99.90;;;;;;5057234;28;20045;-81
2024/01/07 03:37:53;;;;;;;8.68;4.30;;;1.00;99.90;;;;;;5056193;28;20045;-82
2024/01/07 03:40:18;;;;;;;6.88;4.32;;;1.10;99.90;;;;;;5056410;28;20397;-81
2024/01/07 03:42:44;;;;;;;7.97;4.35;;;1.00;99.90;;;;;;5056381;28;20469;-82
2024/01/07 03:45:10;;;;;;;8.57;3.72;;;1.00;99.90;;;;;;5056451;28;20095;-82
2024/01/07 03:47:35;;;;;;;6.47;3.60;;;1.00;99.90;;;;;;5056930;28;20107;-81
2024/01/07 03:50:01;;;;;;;9.40;4.00;;;0.90;99.90;;;;;;5069647;28;20036;-82
2024/01/07 03:52:28;;;;;;;8.57;3.58;;;1.00;99.90;;;;;;5072111;28;20040;-82
2024/01/07 03:54:54;;;;;;;7.38;3.30;;;1.00;99.90;;;;;;5060461;28;20076;-81
2024/01/07 03:57:19;;;;;;;7.43;3.05;;;1.00;99.90;;;;;;5055497;28;20448;-84
2024/01/07 03:59:45;;;;;;;7.05;3.08;;;1.00;99.90;;;;;;5075689;28;20040;-81
2024/01/07 04:02:11;;;;;;;7.78;3.67;;;1.00;99.90;;;;;;5075977;28;20399;-81
2024/01/07 04:04:37;;;;;;;8.73;3.72;;;1.00;99.90;;;;;;5062830;28;20049;-81
2024/01/07 04:07:03;;;;;;;8.13;3.20;;;1.00;99.90;;;;;;5059960;28;20469;-80
2024/01/07 04:09:28;;;;;;;8.23;3.53;;;1.00;99.90;;;;;;5057774;28;20037;-81
2024/01/07 04:11:54;;;;;;;8.35;3.40;;;1.00;99.90;;;;;;5055782;28;20049;-81
2024/01/07 04:14:20;;;;;;;7.90;3.55;;;1.00;99.90;;;;;;5065681;28;20522;-81
2024/01/07 04:16:45;;;;;;;8.77;3.65;;;1.00;99.90;;;;;;5074653;28;20468;-81
2024/01/07 04:19:11;;;;;;;7.15;3.83;;;1.10;99.90;;;;;;5073531;28;20044;-81
2024/01/07 04:21:37;;;;;;;7.50;3.03;;;1.00;99.90;;;;;;5075671;28;20061;-81
2024/01/07 04:24:03;;;;;;;7.32;3.40;;;1.00;99.90;;;;;;5068152;28;20045;-81
2024/01/07 04:26:28;;;;;;;12.18;3.67;;;1.00;99.90;;;;;;5055565;28;20370;-82
2024/01/07 04:28:54;;;;;;;7.78;3.33;;;1.00;99.90;;;;;;5066146;28;20043;-81
2024/01/07 04:31:20;;;;;;;6.93;3.17;;;1.10;99.90;;;;;;5075347;28;20076;-81
2024/01/07 04:33:45;;;;;;;6.72;3.00;;;1.00;99.90;;;;;;5072952;28;20032;-81
2024/01/07 04:36:11;;;;;;;6.10;3.13;;;1.00;99.90;;;;;;5075180;28;20052;-81
2024/01/07 04:38:37;;;;;;;8.93;4.10;;;1.00;99.90;;;;;;5064730;28;20072;-81
2024/01/07 04:41:03;;;;;;;6.00;2.90;;;1.00;99.90;;;;;;5055148;28;20533;-81
2024/01/07 04:43:28;;;;;;;6.63;2.67;;;1.00;99.90;;;;;;5055151;28;20049;-81
2024/01/07 04:45:54;;;;;;;10.50;2.85;;;1.00;99.90;;;;;;5054948;28;20044;-81
2024/01/07 04:48:20;;;;;;;7.07;2.72;;;1.00;99.90;;;;;;5055136;28;20124;-81
2024/01/07 04:50:45;;;;;;;5.97;2.40;;;1.00;99.90;;;;;;5054492;28;20041;-81
2024/01/07 04:53:11;;;;;;;7.25;2.95;;;1.00;99.90;;;;;;5055037;28;20041;-81
2024/01/07 04:55:37;;;;;;;7.20;2.75;;;1.00;99.90;;;;;;5054763;28;20056;-82
2024/01/07 04:58:04;;;;;;;7.07;3.28;;;1.00;99.90;;;;;;5068040;28;20049;-81
2024/01/07 05:00:30;;;;;;;5.88;2.50;;;1.00;99.90;;;;;;5054104;28;20476;-81
2024/01/07 05:02:56;;;;;;;6.65;2.70;;;1.40;99.90;;;;;;5054604;28;20084;-81
2024/01/07 05:05:21;;;;;;;7.10;2.72;;;1.00;99.90;;;;;;5071384;28;20462;-81
2024/01/07 05:07:47;;;;;;;4.60;2.15;;;1.00;99.90;;;;;;5071653;28;20090;-82
2024/01/07 05:10:13;;;;;;;4.38;2.10;;;1.00;99.90;;;;;;5054683;28;20052;-81
2024/01/07 05:12:39;;;;;;;5.35;2.25;;;1.00;99.90;;;;;;5055170;28;20045;-81
2024/01/07 05:15:05;;;;;;;3.95;1.80;;;1.00;99.90;;;;;;5068120;28;20049;-81
2024/01/07 05:17:30;;;;;;;5.18;2.00;;;1.00;99.90;;;;;;5074483;28;20492;-81
2024/01/07 05:19:56;;;;;;;4.43;1.80;;;1.00;99.90;;;;;;5055188;28;20203;-81
2024/01/07 05:22:22;;;;;;;4.25;1.88;;;1.40;99.90;;;;;;5054425;28;20515;-81
2024/01/07 05:24:47;;;;;;;4.53;1.77;;;1.00;99.90;;;;;;5062797;28;20056;-81
2024/01/07 05:27:13;;;;;;;6.15;1.55;;;2.10;99.90;;;;;;5062335;28;20129;-81
2024/01/07 05:29:39;;;;;;;4.63;1.73;;;1.00;99.90;;;;;;5072198;28;20049;-81
2024/01/07 05:32:05;;;;;;;5.18;1.90;;;1.60;99.90;;;;;;5074338;28;20040;-81
2024/01/07 05:34:32;;;;;;;5.07;1.70;;;1.00;99.90;;;;;;5074221;28;20041;-81
2024/01/07 05:36:57;;;;;;;4.28;1.60;;;1.00;99.90;;;;;;5074126;28;20102;-81
2024/01/07 05:39:23;;;;;;;5.28;2.10;;;0.90;99.90;;;;;;5056218;28;20040;-81
2024/01/07 05:41:49;;;;;;;4.97;2.17;;;1.00;99.90;;;;;;5054475;28;20047;-81
2024/01/07 05:44:14;;;;;;;5.05;1.70;;;1.00;99.90;;;;;;5059268;28;20370;-81
2024/01/07 05:46:41;;;;;;;8.00;1.88;;;1.00;99.90;;;;;;5074172;28;20384;-81
2024/01/07 05:49:07;;;;;;;4.60;2.00;;;1.00;99.90;;;;;;5059081;28;20108;-81
2024/01/07 05:51:33;;;;;;;3.25;1.40;;;0.90;99.90;;;;;;5054230;28;20150;-81
2024/01/07 05:53:59;;;;;;;3.65;1.45;;;1.00;99.90;;;;;;5053388;28;20472;-81
2024/01/07 05:56:28;;;;;;;4.22;1.70;;;1.00;99.90;;;;;;5053488;28;20068;-81
2024/01/07 05:58:54;;;;;;;6.47;1.58;;;1.00;99.90;;;;;;5052530;28;20049;-81
2024/01/07 06:01:22;;;;;;;5.05;1.30;;;1.00;99.90;;;;;;5052261;28;20045;-81
2024/01/07 06:03:48;;;;;;;4.80;1.55;;;0.90;99.90;;;;;;5053313;28;20049;-81
2024/01/07 06:06:15;;;;;;;3.28;1.30;;;1.40;99.90;;;;;;5052229;28;20049;-81
2024/01/07 06:08:42;;;;;;;4.20;1.60;;;0.90;99.90;;;;;;5063706;28;20149;-81
2024/01/07 06:11:08;;;;;;;2.55;1.35;;;0.90;99.90;;;;;;5065039;28;20515;-81
2024/01/07 06:13:33;;;;;;;4.60;1.42;;;0.90;99.90;;;;;;5065353;28;20057;-82
2024/01/07 06:15:59;;;;;;;5.38;1.58;;;0.90;99.90;;;;;;5069040;28;20052;-81
2024/01/07 06:18:25;;;;;;;5.38;1.60;;;0.90;99.90;;;;;;5060052;28;20080;-81
2024/01/07 06:20:51;;;;;;;3.55;1.85;;;1.50;99.90;;;;;;5069032;28;20056;-82
2024/01/07 06:23:16;;;;;;;3.65;1.23;;;0.90;99.90;;;;;;5067413;28;20080;-81
2024/01/07 06:25:42;;;;;;;3.58;1.50;;;2.00;99.90;;;;;;5064528;28;20044;-82
2024/01/07 06:28:10;;;;;;;3.13;1.42;;;0.90;99.90;;;;;;5063355;28;20033;-81
2024/01/07 06:30:35;;;;;;;3.95;1.75;;;0.90;99.90;;;;;;5067208;28;20044;-81
2024/01/07 06:33:01;;;;;;;5.15;1.60;;;0.90;99.90;;;;;;5064943;28;20049;-82
2024/01/07 06:35:27;;;;;;;3.70;1.38;;;0.90;99.90;;;;;;5064058;28;20049;-82
2024/01/07 06:37:53;;;;;;;2.85;1.45;;;0.80;99.90;;;;;;5049104;28;20045;-81
2024/01/07 06:40:19;;;;;;;3.45;1.42;;;0.90;99.90;;;;;;5064788;28;20046;-82
2024/01/07 06:42:47;;;;;;;3.25;1.30;;;0.80;99.90;;;;;;5058315;28;20045;-82
2024/01/07 06:45:14;;;;;;;5.35;1.75;;;0.80;99.90;;;;;;5065439;28;20053;-82
2024/01/07 06:47:40;;;;;;;3.05;1.50;;;0.80;99.90;;;;;;5068369;28;20047;-83
2024/01/07 06:50:07;;;;;;;4.20;1.25;;;0.80;99.90;;;;;;5054746;28;20435;-83
2024/01/07 06:52:32;;;;;;;4.05;1.38;;;0.80;99.90;;;;;;5059403;28;20147;-82
2024/01/07 06:54:58;;;;;;;4.05;1.42;;;0.80;99.90;;;;;;5065817;28;20123;-81
2024/01/07 06:57:24;;;;;;;3.85;1.60;;;0.80;99.90;;;;;;5060048;28;20063;-82
2024/01/07 06:59:49;;;;;;;2.97;1.10;;;0.80;99.90;;;;;;5068739;28;20045;-83
2024/01/07 07:02:16;;;;;;;4.35;1.45;;;0.80;99.90;;;;;;5075101;28;20518;-82
2024/01/07 07:04:42;;;;;;;3.60;1.50;;;0.80;99.90;;;;;;5061439;28;20037;-82
2024/01/07 07:07:07;;;;;;;9.07;1.63;;;0.80;99.90;;;;;;5057364;28;20385;-84
2024/01/07 07:09:34;;;;;;;3.40;1.40;;;0.80;99.90;;;;;;5056035;28;20069;-82
2024/01/07 07:12:00;;;;;;;6.15;1.50;;;0.80;99.90;;;;;;5056873;28;20051;-81
2024/01/07 07:14:25;;;;;;;4.72;1.48;;;0.80;99.90;;;;;;5056934;28;20045;-81
2024/01/07 07:16:51;;;;;;;3.70;1.27;;;0.80;99.90;;;;;;5057908;28;20377;-81
2024/01/07 07:19:17;;;;;;;4.78;1.58;;;0.70;99.90;;;;;;5069211;28;20044;-81
2024/01/07 07:21:44;;;;;;;3.20;1.27;;;1.70;99.90;;;;;;5076959;28;20082;-82
2024/01/07 07:24:10;;;;;;;4.30;1.38;;;0.70;99.90;;;;;;5075628;28;20075;-81
2024/01/07 07:26:40;;;;;;;6.25;1.70;;;0.70;99.90;;;;;;5072408;28;20049;-81
2024/01/07 07:29:07;;;;;;;4.53;1.38;;;0.70;99.90;;;;;;5061052;28;20048;-80
2024/01/07 07:31:32;;;;;;;5.47;1.38;;;0.70;99.90;;;;;;5064025;28;20045;-81
2024/01/07 07:33:58;;;;;;;3.72;1.25;;;0.70;99.90;;;;;;5057011;28;20083;-81
2024/01/07 07:36:23;;;;;;;5.28;1.40;;;0.60;99.90;;;;;;5055771;28;20548;-79
2024/01/07 07:38:50;;;;;;;3.83;1.27;;;0.60;99.90;;;;;;5073004;28;20040;-80
2024/01/07 07:41:16;;;;;;;4.65;1.23;;;0.60;99.90;;;;;;5060416;28;20045;-83
2024/01/07 07:43:41;;;;;;;4.07;1.75;;;0.60;99.90;;;;;;5061375;28;20430;-82
2024/01/07 07:46:07;;;;;;;5.32;1.38;;;0.50;99.90;;;;;;5072022;28;20052;-81
2024/01/07 07:48:33;;;;;;;7.13;1.50;;;1.60;99.90;;;;;;5060881;28;20040;-81
2024/01/07 07:50:58;;;;;;;4.03;1.23;;;0.50;99.90;;;;;;5061415;28;20070;-83
2024/01/07 07:53:24;;;;;;;4.22;1.30;;;0.40;99.90;;;;;;5075182;28;20491;-82
2024/01/07 07:55:50;;;;;;;3.55;1.23;;;0.40;99.90;;;;;;5063293;28;20048;-82
2024/01/07 07:58:15;;;;;;;4.20;1.60;;;0.40;99.90;;;;;;5075791;28;20055;-83
2024/01/07 08:00:41;;;;;;;4.72;1.60;;;0.30;99.90;;;;;;5063697;28;20392;-82
2024/01/07 08:03:06;;;;;;;6.25;1.33;;;1.10;99.90;;;;;;5061937;28;20048;-82
2024/01/07 08:05:32;;;;;;;3.88;1.45;;;0.30;99.90;;;;;;5061293;28;20045;-81
2024/01/07 08:07:58;;;;;;;4.60;1.60;;;0.30;99.90;;;;;;5055895;28;20489;-82
2024/01/07 08:10:23;;;;;;;3.17;1.30;;;0.30;99.90;;;;;;5057569;28;20072;-82
2024/01/07 08:12:50;;;;;;;3.35;1.13;;;0.40;99.90;;;;;;5074431;28;20094;-82
2024/01/07 08:15:16;;;;;;;4.25;1.40;;;0.40;99.90;;;;;;5063196;28;20044;-82
2024/01/07 08:17:41;;;;;;;5.93;1.30;;;0.60;99.90;;;;;;5040478;28;20130;-82
2024/01/07 08:20:08;;;;;;;4.18;1.30;;;1.30;99.90;;;;;;5055132;28;20515;-83
2024/01/07 08:22:34;;;;;;;3.42;1.52;;;0.40;99.90;;;;;;5056634;28;20092;-83
2024/01/07 08:24:59;;;;;;;4.30;1.30;;;0.40;99.90;;;;;;5072718;28;20075;-82
2024/01/07 08:27:25;;;;;;;4.70;1.60;;;0.30;99.90;;;;;;5075341;28;20556;-82
2024/01/07 08:29:51;;;;;;;3.78;1.55;;;0.40;99.90;;;;;;5069732;28;20397;-82
2024/01/07 08:32:16;;;;;;;4.25;1.60;;;0.40;99.90;;;;;;5062628;28;20059;-82
2024/01/07 08:34:42;;;;;;;4.00;1.38;;;0.40;99.90;;;;;;5055553;28;20033;-82
2024/01/07 08:37:08;;;;;;;3.88;1.40;;;0.40;99.90;;;;;;5055845;28;20064;-82
2024/01/07 08:39:34;;;;;;;4.57;1.48;;;0.50;99.90;;;;;;5071581;28;20044;-83
2024/01/07 08:42:00;;;;;;;5.25;1.67;;;0.50;99.90;;;;;;5074261;28;20419;-82
2024/01/07 08:44:25;;;;;;;5.18;1.50;;;1.40;99.90;;;;;;5070948;28;20094;-82
2024/01/07 08:46:51;;;;;;;5.50;1.25;;;0.60;99.90;;;;;;5059579;28;20033;-83
2024/01/07 08:49:17;;;;;;;4.65;1.70;;;0.60;99.90;;;;;;5068521;28;20080;-84
2024/01/07 08:51:43;;;;;;;4.53;1.50;;;0.60;99.90;;;;;;5073017;28;20125;-82
2024/01/07 08:54:09;;;;;;;6.15;1.95;;;0.60;99.90;;;;;;5074850;28;20130;-82
2024/01/07 08:56:34;;;;;;;4.07;1.85;;;0.60;99.90;;;;;;5064218;28;20392;-83
2024/01/07 08:59:00;;;;;;;6.88;1.77;;;0.70;99.90;;;;;;5072874;28;20480;-82
2024/01/07 09:01:26;;;;;;;5.05;1.80;;;1.10;99.90;;;;;;5064261;28;20062;-81
2024/01/07 09:03:53;;;;;;;4.10;1.70;;;0.70;99.90;;;;;;5056606;28;20411;-82
2024/01/07 09:06:19;;;;;;;4.03;1.40;;;0.70;99.90;;;;;;5054172;28;20048;-83
2024/01/07 09:08:44;;;;;;;4.97;1.63;;;0.80;99.90;;;;;;5057272;28;20049;-86
2024/01/07 09:11:12;;;;;;;7.55;1.95;;;0.80;99.90;;;;;;5061142;28;20400;-83
2024/01/07 09:13:41;;;;;;;5.63;1.70;;;0.80;99.90;;;;;;5056793;28;20052;-83
2024/01/07 09:16:11;;;;;;;4.80;1.85;;;1.90;99.90;;;;;;5071397;28;20052;-83
2024/01/07 09:18:36;;;;;;;3.22;1.52;;;0.80;99.90;;;;;;5058998;28;20323;-83
2024/01/07 09:21:02;;;;;;;6.10;1.70;;;0.80;99.90;;;;;;5063063;28;20443;-81
2024/01/07 09:23:28;;;;;;;4.90;1.80;;;0.90;99.90;;;;;;5064699;28;20091;-79
2024/01/07 09:25:54;;;;;;;5.28;1.65;;;0.90;99.90;;;;;;5068946;28;20040;-79
2024/01/07 09:28:20;;;;;;;4.05;1.48;;;0.90;99.90;;;;;;5054876;28;20372;-80
2024/01/07 09:30:46;;;;;;;4.28;1.40;;;0.90;99.90;;;;;;5060120;28;20098;-82
2024/01/07 09:33:13;;;;;;;4.22;2.05;;;0.90;99.90;;;;;;5059679;28;20048;-81
2024/01/07 09:35:39;;;;;;;5.60;1.50;;;0.90;99.90;;;;;;5063151;28;20041;-79
2024/01/07 09:38:05;;;;;;;5.57;1.58;;;0.90;99.90;;;;;;5069638;28;20045;-80
2024/01/07 09:40:30;;;;;;;4.22;1.65;;;1.30;99.90;;;;;;5069583;28;20055;-81
2024/01/07 09:42:57;;;;;;;3.22;1.45;;;1.00;99.90;;;;;;5059557;28;20056;-77
2024/01/07 09:45:23;;;;;;;3.88;1.08;;;1.00;99.90;;;;;;5057255;28;20056;-77
2024/01/07 09:47:49;;;;;;;4.15;1.30;;;1.00;99.90;;;;;;5061729;28;20048;-77
2024/01/07 09:50:16;;;;;;;3.65;1.27;;;1.80;99.90;;;;;;5058658;28;20110;-76
2024/01/07 09:52:44;;;;;;;3.55;1.10;;;1.00;99.90;;;;;;5061938;28;20380;-76
2024/01/07 09:55:17;;;;;;;3.13;1.00;;;1.00;99.90;;;;;;5060416;28;20049;-76
2024/01/07 09:57:44;;;;;;;4.82;1.42;;;1.10;99.90;;;;;;5060855;28;20074;-76
2024/01/07 10:00:13;;;;;;;2.50;0.95;;;1.10;99.90;;;;;;5063633;28;20045;-76
2024/01/07 10:02:41;;;;;;;2.28;0.90;;;1.10;99.90;;;;;;5058504;28;20052;-77
2024/01/07 10:05:07;;;;;;;4.93;1.10;;;1.10;99.90;;;;;;5062099;28;20473;-76
2024/01/07 10:07:33;;;;;;;4.72;1.15;;;1.20;99.90;;;;;;5041842;28;20106;-77
2024/01/07 10:10:19;;;;;;;4.78;1.52;;;1.10;99.90;;;;;;5058793;28;20119;-77
2024/01/07 10:12:46;;;;;;;2.85;1.08;;;1.10;99.90;;;;;;5060268;28;20032;-77
2024/01/07 10:15:13;;;;;;;1.95;1.05;;;1.30;99.90;;;;;;5059743;28;20127;-77
2024/01/07 10:17:42;;;;;;;3.17;1.10;;;1.20;99.90;;;;;;5042486;28;20041;-75
2024/01/07 10:20:11;;;;;;;4.32;1.67;;;1.30;99.90;;;;;;5058271;28;20398;-77
2024/01/07 10:22:40;;;;;;;4.80;1.98;;;1.20;99.90;;;;;;5070355;28;20503;-79
2024/01/07 10:25:06;;;;;;;5.82;1.10;;;1.30;99.90;;;;;;5067212;28;20116;-78
2024/01/07 10:27:38;;;;;;;4.18;1.30;;;1.30;99.90;;;;;;5056784;28;20045;-78
2024/01/07 10:30:05;;;;;;;6.97;1.70;;;1.30;99.90;;;;;;5051700;28;20041;-77
2024/01/07 10:32:31;;;;;;;6.75;1.70;;;1.30;99.90;;;;;;5061295;28;20056;-77
2024/01/07 10:35:03;;;;;;;4.72;1.80;;;1.30;99.90;;;;;;5058970;28;20049;-79
2024/01/07 10:37:32;;;;;;;3.45;1.45;;;1.40;99.90;;;;;;5054318;28;20037;-80
2024/01/07 10:40:10;;;;;;;4.57;1.58;;;1.40;99.90;;;;;;5053057;28;20097;-80
2024/01/07 10:42:37;;;;;;;4.30;1.25;;;1.40;99.90;;;;;;5054250;28;20051;-80
2024/01/07 10:45:06;;;;;;;6.68;1.80;;;1.50;99.90;;;;;;5057220;28;20048;-81
2024/01/07 10:47:33;;;;;;;3.95;1.63;;;1.40;99.90;;;;;;5057520;28;20051;-80
2024/01/07 10:50:17;;;;;;;3.33;1.48;;;1.50;99.90;;;;;;5053349;28;20049;-78
2024/01/07 10:52:44;;;;;;;3.20;1.60;;;1.50;99.90;;;;;;5070291;28;20537;-79
2024/01/07 10:55:12;;;;;;;3.90;1.27;;;1.60;99.90;;;;;;5055951;28;20401;-79
2024/01/07 10:57:49;;;;;;;3.80;1.25;;;1.80;99.90;;;;;;5048136;28;20392;-80
2024/01/07 11:00:19;;;;;;;4.50;1.50;;;1.90;99.90;;;;;;5064516;28;20432;-78
2024/01/07 11:03:00;;;;;;;2.95;1.30;;;1.70;99.90;;;;;;5051579;28;20044;-79
2024/01/07 11:05:52;;;;;;;4.38;1.40;;;1.80;99.90;;;;;;5059034;28;20037;-79
2024/01/07 11:08:27;;;;;;;3.75;1.42;;;1.90;99.90;;;;;;5051587;28;20037;-80
2024/01/07 11:11:10;;;;;;;3.53;1.40;;;1.90;99.90;;;;;;5051282;28;20393;-79
2024/01/07 11:13:40;;;;;;;5.68;1.67;;;1.90;99.90;;;;;;5067668;28;20059;-79
2024/01/07 11:16:12;;;;;;;9.77;1.60;;;1.90;99.90;;;;;;5057874;28;20041;-79
2024/01/07 11:18:51;;;;;;;3.65;1.45;;;2.00;99.90;;;;;;5051983;28;20056;-78
2024/01/07 11:21:24;;;;;;;3.25;1.45;;;2.30;99.90;;;;;;5062537;28;20504;-78
2024/01/07 11:23:52;;;;;;;3.25;1.35;;;2.10;99.90;;;;;;5071572;28;20041;-77
2024/01/07 11:26:20;;;;;;;4.38;1.30;;;2.10;99.90;;;;;;5050562;28;20048;-78
2024/01/07 11:28:58;;;;;;;7.47;1.55;;;2.10;99.90;;;;;;5035361;28;20124;-82
2024/01/07 11:31:44;;;;;;;5.75;1.70;;;2.90;99.90;;;;;;5052487;28;20048;-87
2024/01/07 11:34:31;;;;;;;6.75;1.65;;;2.20;99.90;;;;;;5037860;28;20120;-80
2024/01/07 11:37:00;;;;;;;4.65;1.83;;;2.20;99.90;;;;;;5058469;28;20370;-78
2024/01/07 11:39:27;;;;;;;4.90;2.20;;;2.50;99.90;;;;;;5061248;28;20063;-78
2024/01/07 11:41:52;;;;;;;5.30;2.42;;;2.10;99.90;;;;;;5059570;28;20056;-80
2024/01/07 11:44:18;;;;;;;4.68;2.20;;;2.10;99.90;;;;;;5037195;28;20419;-80
2024/01/07 11:46:44;;;;;;;7.03;2.70;;;2.10;99.90;;;;;;5055433;28;20096;-80
2024/01/07 11:49:20;;;;;;;4.55;2.20;;;2.20;99.90;;;;;;5055373;28;20037;-82
2024/01/07 11:51:46;;;;;;;6.82;2.50;;;3.10;99.90;;;;;;5055343;28;20063;-82
2024/01/07 11:54:12;;;;;;;6.95;2.55;;;2.30;99.90;;;;;;5064384;28;20554;-82
2024/01/07 11:56:38;;;;;;;5.30;2.50;;;2.40;99.90;;;;;;5067942;28;20510;-83
2024/01/07 11:59:03;;;;;;;6.20;2.50;;;2.50;99.90;;;;;;5057827;28;20057;-81
2024/01/07 12:01:33;;;;;;;5.65;2.70;;;2.60;99.90;;;;;;5066583;28;20463;-84
2024/01/07 12:03:59;;;;;;;8.40;2.60;;;2.70;99.90;;;;;;5056102;28;20041;-82
2024/01/07 12:06:28;;;;;;;6.07;2.45;;;3.50;99.90;;;;;;5064981;28;20115;-79
2024/01/07 12:08:58;;;;;;;6.28;2.80;;;2.80;99.90;;;;;;5063821;28;20132;-81
2024/01/07 12:11:28;;;;;;;6.80;3.35;;;2.80;99.90;;;;;;5054599;28;20045;-80
2024/01/07 12:13:55;;;;;;;7.00;2.88;;;2.80;99.90;;;;;;5043966;28;20045;-80
2024/01/07 12:16:25;;;;;;;8.73;3.20;;;2.90;99.90;;;;;;5055941;28;20053;-78
2024/01/07 12:18:51;;;;;;;6.68;2.70;;;2.90;99.90;;;;;;5054016;28;20107;-79
2024/01/07 12:21:22;;;;;;;5.32;2.70;;;3.00;99.90;;;;;;5054302;28;20096;-79
2024/01/07 12:23:50;;;;;;;6.72;2.88;;;3.10;99.90;;;;;;5055012;28;20052;-79
2024/01/07 12:26:19;;;;;;;9.35;2.60;;;3.10;99.90;;;;;;5053953;28;20049;-79
2024/01/07 12:28:45;;;;;;;5.35;2.40;;;3.10;99.90;;;;;;5053923;28;20048;-78
2024/01/07 12:31:11;;;;;;;8.65;3.13;;;3.10;99.90;;;;;;5073872;28;20037;-79
2024/01/07 12:33:37;;;;;;;5.82;2.60;;;3.10;99.90;;;;;;5071112;28;20037;-79
2024/01/07 12:36:03;;;;;;;6.93;3.15;;;3.10;99.90;;;;;;5058884;28;20715;-78
2024/01/07 12:38:29;;;;;;;8.57;2.65;;;3.10;99.90;;;;;;5072954;28;20132;-78
2024/01/07 12:40:59;;;;;;;6.53;2.85;;;3.10;99.90;;;;;;5074205;28;20044;-78
2024/01/07 12:43:29;;;;;;;4.72;2.72;;;3.00;99.90;;;;;;5057434;28;20040;-78
2024/01/07 12:45:57;;;;;;;8.48;2.90;;;3.10;99.90;;;;;;5057260;28;20131;-78
2024/01/07 12:48:23;;;;;;;5.18;2.47;;;3.00;99.90;;;;;;5042225;28;20126;-79
2024/01/07 12:50:49;;;;;;;6.10;2.38;;;3.10;99.90;;;;;;5058784;28;20040;-78
2024/01/07 12:53:15;;;;;;;5.13;2.28;;;3.10;99.90;;;;;;5056984;28;20101;-78